Aérodrome :
LOGIN :

S'inscrire | Disclaimer

   EN    FR    IT 

 










Légende :    VFR   VFR Marginal   IFR   IFR Intensif   IFR Très Intensif
Visi : 
Plafond : 
>= 8 km
>= 3000ft
5 à 8 km
1000 à 3000 ft
1500m à 5 km
500 à 1000 ft
800 à 1500m
200 à 500 ft
< 800m
< 200 ft
Symboles :   Orages  Brouillard  Fortes neiges  Fortes précipitations  Vent > 20 kt
SIGMETs :   Divers  Orages  Givrage  Turbulence  Onde Orograph.  Cendres Volcan.






- Altitude de l'aérodrome : 1197 ft
- Code IATA : SPM


ETAD - Spangdahlem Ab

DERNIER METAR :
  • 191456Z AUTO 00000KT 9999 CLR 04/00 A3003 RMK AO2 SLP175 T00351002 55000 $

METARs EXPIRÉS :
  • 191356Z AUTO 24005KT 9999 CLR 05/00 A3003 RMK AO2 SLP175 T00481004 $
  • 191326Z AUTO 26003KT 9999 FEW026 04/M01 A3003 RMK AO2 SLP175 $
  • 191256Z AUTO 27005KT 9999 SCT018 OVC025 04/01 A3003 RMK AO2 SLP175 T00410006 $

TAF TAF ETAD
Valide du 19 à 13h jusqu'au 20 à 19h UTC


191300Z 1913/2019 VRB06KT 9999 SCT018 BKN025 620256 QNH3002INS
TEMPO 1913/1922 BKN016 OVC025 620253
BECMG 1923/1924 VRB04KT 8000 BR BKN010 QNH3006INS
BECMG 2001/2002 VRB04KT 3200 BR BKN007 QNH3002INS
BECMG 2007/2008 VRB04KT 8000 BR BKN007 QNH3002INS
BECMG 2008/2009 09012KT 9999 NSW BKN015 QNH3002INS TX04/1913Z TNM03/2004Z



MET'MAP, la Météo Aéronautique d'un coup d'oeil ! - Copyright ORBIFLY Décembre 2007 - Disclaimer

ORBIFLY MET'MAP TEAM :

Programmation & Développement : Alexandra Zaïnal
Conception & Développement : Baudouin d'Aumeries
Co-Programmation & Développement : Marc-Olivier Méhu
Soutien technique & logistique : Manuel Goepfert

Contact : metmap@orbifly.com




SOURCES & CREDITS :

   NOAA